Time;durP1;ratioP1;P1;durP2;ratioP2;P2;SDS_P1;SDS_P2;PMS_P1;PMS_P2;Temp;Humidity;BMP_temperature;BMP_pressure;BME280_temperature;BME280_humidity;BME280_pressure;Samples;Min_cycle;Max_cycle;Signal;HPM_P1;HPM_P2
2023/05/17 00:08:07;;;;;;;4.80;1.73;;;10.10;68.50;;;;;;20926082;28;20251;-71
2023/05/17 00:18:08;;;;;;;4.67;1.73;;;10.10;69.70;;;;;;20923958;28;20327;-73
2023/05/17 00:28:10;;;;;;;6.33;1.87;;;10.10;70.60;;;;;;20925429;28;20331;-72
2023/05/17 00:38:12;;;;;;;5.57;1.90;;;10.00;71.10;;;;;;20943046;28;20274;-73
2023/05/17 00:48:14;;;;;;;6.30;1.90;;;9.90;73.10;;;;;;20931855;28;20240;-71
2023/05/17 00:58:16;;;;;;;6.13;1.80;;;9.90;73.80;;;;;;20921309;28;20204;-73
2023/05/17 01:08:18;;;;;;;4.30;1.73;;;10.00;73.40;;;;;;20921580;28;20238;-71
2023/05/17 01:18:27;;;;;;;5.17;2.10;;;9.80;75.20;;;;;;20920484;28;20238;-72
2023/05/17 01:28:30;;;;;;;4.87;1.93;;;9.80;76.20;;;;;;20920448;28;20322;-72
2023/05/17 01:38:32;;;;;;;5.07;1.80;;;9.80;76.90;;;;;;20919639;28;20228;-74
2023/05/17 01:48:38;;;;;;;5.03;1.73;;;9.50;77.50;;;;;;20918125;28;20705;-73
2023/05/17 01:58:45;;;;;;;7.83;2.33;;;9.40;78.30;;;;;;20918391;28;20211;-74
2023/05/17 02:08:47;;;;;;;6.40;2.47;;;9.30;79.60;;;;;;20891070;28;20272;-74
2023/05/17 02:18:49;;;;;;;6.67;2.30;;;9.20;81.10;;;;;;20857216;28;20327;-74
2023/05/17 02:28:51;;;;;;;4.83;2.10;;;9.00;81.90;;;;;;20833239;28;20330;-72
2023/05/17 02:38:53;;;;;;;8.73;2.47;;;9.20;82.70;;;;;;20832314;28;20298;-73
2023/05/17 02:48:54;;;;;;;8.73;2.50;;;9.20;83.50;;;;;;20831662;28;20240;-71
2023/05/17 02:58:56;;;;;;;5.67;2.17;;;9.40;83.30;;;;;;20831377;28;20235;-72
2023/05/17 03:08:58;;;;;;;3.70;1.90;;;9.40;83.90;;;;;;20830415;28;20321;-74
2023/05/17 03:18:59;;;;;;;6.03;2.10;;;9.40;84.20;;;;;;20829913;28;20238;-72
2023/05/17 03:29:02;;;;;;;4.90;2.33;;;9.40;84.20;;;;;;20855101;28;20703;-71
2023/05/17 03:39:03;;;;;;;5.80;2.13;;;9.40;84.60;;;;;;20857722;28;20216;-70
2023/05/17 03:49:05;;;;;;;4.30;2.10;;;9.30;85.20;;;;;;20856338;28;20249;-72
2023/05/17 03:59:07;;;;;;;6.77;2.47;;;9.30;85.80;;;;;;20856257;28;20262;-71
2023/05/17 04:09:11;;;;;;;8.23;3.23;;;9.40;86.10;;;;;;20857863;28;20242;-71
2023/05/17 04:19:13;;;;;;;5.27;2.80;;;9.10;86.90;;;;;;20859226;28;20757;-71
2023/05/17 04:29:15;;;;;;;7.00;2.47;;;9.00;88.00;;;;;;20861161;28;20245;-71
2023/05/17 04:39:19;;;;;;;7.20;2.80;;;9.10;87.90;;;;;;20842885;28;20250;-72
2023/05/17 04:49:21;;;;;;;8.03;2.50;;;9.20;88.20;;;;;;20838893;28;20323;-73
2023/05/17 04:59:22;;;;;;;16.60;3.53;;;9.40;88.80;;;;;;20839952;28;20707;-75
2023/05/17 05:09:24;;;;;;;9.27;3.40;;;9.50;88.60;;;;;;20838556;28;20229;-76
2023/05/17 05:19:26;;;;;;;11.50;2.97;;;9.60;88.60;;;;;;20837750;28;20240;-71
2023/05/17 05:29:28;;;;;;;9.73;3.70;;;9.80;88.90;;;;;;20837012;28;20249;-76
2023/05/17 05:39:29;;;;;;;8.50;2.90;;;10.10;87.40;;;;;;20836105;28;20204;-72
2023/05/17 05:49:31;;;;;;;12.10;2.80;;;10.40;85.00;;;;;;20834163;28;20288;-72
2023/05/17 05:59:33;;;;;;;11.93;3.17;;;10.60;84.80;;;;;;20832952;28;20291;-73
2023/05/17 06:09:34;;;;;;;10.90;3.27;;;10.70;85.50;;;;;;20833226;28;20239;-72
2023/05/17 06:19:36;;;;;;;14.23;3.87;;;11.10;84.80;;;;;;20833276;28;20245;-76
2023/05/17 06:30:43;;;;;;;10.27;3.30;;;11.80;80.90;;;;;;20984068;28;20565;-73
2023/05/17 06:40:45;;;;;;;7.70;3.40;;;11.90;80.00;;;;;;20982552;28;20306;-73
2023/05/17 06:50:46;;;;;;;6.27;2.90;;;12.10;79.90;;;;;;20982008;28;20205;-73
2023/05/17 07:00:48;;;;;;;5.77;2.80;;;12.50;77.40;;;;;;20980672;28;20226;-72
2023/05/17 07:10:51;;;;;;;6.37;3.33;;;12.70;75.20;;;;;;20980721;28;20209;-76
2023/05/17 07:20:53;;;;;;;10.20;3.40;;;13.10;73.70;;;;;;20979369;28;20231;-73
2023/05/17 07:30:54;;;;;;;8.67;2.97;;;13.10;71.80;;;;;;20978721;28;20339;-75
2023/05/17 07:40:56;;;;;;;8.50;3.30;;;13.20;71.00;;;;;;20929610;28;20209;-75
2023/05/17 07:50:58;;;;;;;11.43;3.03;;;13.40;69.70;;;;;;20922308;28;20730;-75
2023/05/17 08:01:00;;;;;;;10.17;3.20;;;13.50;69.50;;;;;;20921455;28;20676;-72
2023/05/17 08:11:01;;;;;;;12.53;3.40;;;13.30;68.80;;;;;;20921829;28;20216;-77
2023/05/17 08:21:03;;;;;;;5.27;3.10;;;13.20;68.70;;;;;;20919369;28;20244;-77
2023/05/17 08:31:06;;;;;;;8.60;3.30;;;13.10;69.80;;;;;;20920258;28;20214;-75
2023/05/17 08:41:08;;;;;;;8.07;3.40;;;13.20;69.40;;;;;;20934580;28;20220;-74
2023/05/17 08:51:10;;;;;;;9.40;3.33;;;13.50;69.30;;;;;;20952686;28;20212;-76
2023/05/17 09:01:14;;;;;;;9.77;3.50;;;13.50;69.30;;;;;;20920003;28;20231;-75
2023/05/17 09:11:25;;;;;;;9.87;3.77;;;13.60;69.60;;;;;;20916988;28;20297;-74
2023/05/17 09:21:29;;;;;;;9.30;3.83;;;13.70;69.50;;;;;;20915774;28;20604;-71
2023/05/17 09:31:32;;;;;;;10.00;3.60;;;13.40;69.50;;;;;;20914810;28;20204;-71
2023/05/17 09:41:48;;;;;;;13.23;3.53;;;14.10;69.10;;;;;;20914785;28;20620;-74
2023/05/17 09:51:50;;;;;;;7.17;3.33;;;14.30;67.50;;;;;;20914035;28;20208;-76
2023/05/17 10:01:53;;;;;;;8.50;3.27;;;14.40;68.10;;;;;;20911959;28;20243;-74
2023/05/17 10:11:56;;;;;;;8.60;3.00;;;14.20;65.80;;;;;;20913120;28;20207;-73
2023/05/17 10:21:59;;;;;;;6.17;3.20;;;15.00;63.30;;;;;;20912070;28;20316;-73
2023/05/17 10:32:25;;;;;;;5.23;2.80;;;15.00;63.70;;;;;;20911775;28;20210;-72
2023/05/17 10:42:30;;;;;;;7.23;3.27;;;14.90;61.70;;;;;;20911594;28;20238;-71
2023/05/17 10:52:31;;;;;;;8.93;3.03;;;14.70;62.20;;;;;;20910647;28;20687;-71
2023/05/17 11:02:39;;;;;;;9.13;3.50;;;14.80;62.30;;;;;;20910355;28;20242;-74
2023/05/17 11:12:43;;;;;;;9.17;3.40;;;14.50;62.20;;;;;;20918621;28;20206;-72
2023/05/17 11:23:15;;;;;;;6.67;3.40;;;14.50;62.50;;;;;;20924834;28;20239;-73
2023/05/17 11:33:19;;;;;;;5.17;3.03;;;14.90;60.60;;;;;;20922529;28;20215;-78
2023/05/17 11:43:34;;;;;;;9.10;3.43;;;15.40;58.80;;;;;;20900561;28;20232;-75
2023/05/17 11:53:36;;;;;;;6.07;3.00;;;15.90;57.30;;;;;;20873822;28;20205;-75
2023/05/17 12:03:38;;;;;;;6.40;3.40;;;16.30;57.20;;;;;;20878090;28;20240;-74
2023/05/17 12:13:41;;;;;;;6.13;2.80;;;16.80;56.40;;;;;;20848658;28;20300;-69
2023/05/17 12:23:47;;;;;;;6.93;2.73;;;16.90;55.70;;;;;;20845350;28;20245;-76
2023/05/17 12:33:51;;;;;;;8.03;3.00;;;17.00;56.30;;;;;;20893827;28;20210;-72
2023/05/17 12:43:54;;;;;;;4.97;2.87;;;17.30;51.10;;;;;;20890238;28;20234;-75
2023/05/17 12:54:35;;;;;;;7.10;3.00;;;17.10;51.20;;;;;;20864546;28;20207;-73
2023/05/17 13:04:37;;;;;;;7.40;3.33;;;17.20;51.00;;;;;;20849773;28;20241;-75
2023/05/17 13:14:44;;;;;;;6.43;2.60;;;18.20;47.00;;;;;;20843725;28;20215;-76
2023/05/17 13:24:48;;;;;;;4.80;2.40;;;18.30;47.40;;;;;;20902145;28;20242;-77
2023/05/17 13:34:49;;;;;;;6.40;2.90;;;18.20;47.00;;;;;;20922367;28;20713;-76
2023/05/17 13:44:51;;;;;;;13.40;3.57;;;18.70;46.20;;;;;;20925376;28;20321;-75
2023/05/17 13:54:53;;;;;;;7.73;2.73;;;18.90;45.60;;;;;;20951062;28;20202;-78
2023/05/17 14:04:55;;;;;;;5.80;2.70;;;18.30;45.50;;;;;;20943300;28;20275;-76
2023/05/17 14:14:57;;;;;;;8.90;3.10;;;19.10;45.90;;;;;;20897433;28;20245;-75
2023/05/17 14:24:58;;;;;;;5.70;2.67;;;23.90;41.80;;;;;;20966867;28;20335;-73
2023/05/17 14:35:00;;;;;;;7.35;2.92;;;25.60;38.50;;;;;;20974124;28;20290;-76
2023/05/17 14:45:02;;;;;;;5.63;2.42;;;24.70;38.40;;;;;;20923202;28;20234;-74
2023/05/17 14:55:05;;;;;;;6.30;3.10;;;24.00;38.10;;;;;;20935247;28;20294;-73
2023/05/17 15:05:07;;;;;;;6.95;2.35;;;24.80;38.60;;;;;;20912432;28;20271;-73
2023/05/17 15:15:09;;;;;;;4.43;2.13;;;25.90;38.10;;;;;;20876238;28;20209;-74
2023/05/17 15:25:11;;;;;;;4.28;2.20;;;26.60;35.80;;;;;;20875213;28;20236;-74
2023/05/17 15:35:13;;;;;;;8.67;2.70;;;24.70;38.60;;;;;;20882229;28;20205;-74
2023/05/17 15:45:15;;;;;;;4.73;2.60;;;21.60;39.70;;;;;;20874031;28;20243;-72
2023/05/17 15:55:17;;;;;;;4.30;2.40;;;20.60;40.60;;;;;;20873554;28;20215;-74
2023/05/17 16:05:19;;;;;;;6.30;2.50;;;;;;;;;;20839587;28;20228;-72
2023/05/17 16:15:21;;;;;;;5.13;2.60;;;;;;;;;;20839692;28;20718;-75
2023/05/17 16:25:23;;;;;;;5.80;3.30;;;20.00;42.00;;;;;;20850283;28;20236;-70
2023/05/17 16:35:25;;;;;;;4.23;2.30;;;21.30;40.80;;;;;;20896452;28;20291;-72
2023/05/17 16:45:27;;;;;;;5.63;2.40;;;20.00;40.40;;;;;;20886254;28;20294;-73
2023/05/17 16:55:29;;;;;;;7.30;2.47;;;19.70;40.70;;;;;;20851566;28;20208;-74
2023/05/17 17:05:31;;;;;;;5.50;2.30;;;19.30;41.30;;;;;;20834323;28;20284;-74
2023/05/17 17:15:33;;;;;;;6.33;2.27;;;18.70;41.90;;;;;;20834410;28;20714;-71
2023/05/17 17:25:35;;;;;;;7.07;2.60;;;18.60;42.60;;;;;;20831693;28;20244;-75
2023/05/17 17:35:37;;;;;;;6.03;2.73;;;18.90;42.10;;;;;;20969892;28;20289;-76
2023/05/17 17:45:39;;;;;;;9.13;2.87;;;18.10;42.70;;;;;;20995027;28;20324;-79
2023/05/17 17:55:41;;;;;;;6.93;2.30;;;17.80;43.20;;;;;;20996795;28;20294;-76
2023/05/17 18:05:42;;;;;;;5.37;2.30;;;17.50;43.70;;;;;;20979444;28;20239;-74
2023/05/17 18:15:44;;;;;;;8.37;2.67;;;16.70;43.90;;;;;;20858351;28;20268;-79
2023/05/17 18:25:49;;;;;;;7.00;2.80;;;16.70;44.40;;;;;;20830130;28;20586;-76
2023/05/17 18:35:51;;;;;;;7.37;2.63;;;16.30;45.30;;;;;;20973267;28;20247;-77
2023/05/17 18:45:52;;;;;;;9.27;2.73;;;15.60;46.10;;;;;;20975799;28;20235;-76
2023/05/17 18:55:54;;;;;;;4.57;2.17;;;15.40;46.70;;;;;;20865485;28;20317;-79
2023/05/17 19:05:56;;;;;;;4.43;2.57;;;15.30;47.70;;;;;;20860077;28;20235;-75
2023/05/17 19:15:59;;;;;;;5.77;2.70;;;14.90;47.80;;;;;;20874678;28;20629;-76
2023/05/17 19:26:01;;;;;;;8.93;2.50;;;14.70;48.80;;;;;;20827797;28;20339;-75
2023/05/17 19:36:03;;;;;;;6.37;2.97;;;14.30;48.90;;;;;;20941104;28;20212;-75
2023/05/17 19:46:09;;;;;;;6.83;2.50;;;14.20;49.60;;;;;;20878113;28;20234;-75
2023/05/17 19:56:11;;;;;;;7.37;2.50;;;13.90;49.90;;;;;;20876019;28;20671;-76
2023/05/17 20:06:13;;;;;;;12.30;4.77;;;13.70;50.40;;;;;;20906690;28;20711;-74
2023/05/17 20:16:15;;;;;;;8.03;3.10;;;13.70;51.00;;;;;;20843942;28;20246;-73
2023/05/17 20:26:24;;;;;;;8.60;2.80;;;13.60;51.20;;;;;;20854015;28;20250;-73
2023/05/17 20:36:26;;;;;;;8.07;2.80;;;13.60;51.70;;;;;;20837498;28;20231;-74
2023/05/17 20:46:30;;;;;;;6.83;2.50;;;13.40;51.30;;;;;;20836670;28;20343;-73
2023/05/17 20:56:33;;;;;;;6.67;2.20;;;13.40;51.80;;;;;;20836576;28;20294;-75
2023/05/17 21:06:35;;;;;;;9.33;2.60;;;13.30;51.70;;;;;;20834703;28;20461;-76
2023/05/17 21:16:37;;;;;;;13.43;2.67;;;13.10;51.50;;;;;;20834565;28;20606;-78
2023/05/17 21:26:39;;;;;;;7.47;2.23;;;13.10;52.00;;;;;;20835549;28;20311;-76
2023/05/17 21:36:42;;;;;;;4.97;2.60;;;13.10;51.90;;;;;;20834886;28;20240;-77
2023/05/17 21:46:44;;;;;;;7.47;2.30;;;12.90;51.60;;;;;;20832351;28;20326;-75
2023/05/17 21:56:46;;;;;;;10.30;2.60;;;12.90;52.00;;;;;;20831682;28;20212;-76
2023/05/17 22:06:47;;;;;;;7.07;2.47;;;12.70;52.20;;;;;;20831226;28;20246;-75
2023/05/17 22:16:49;;;;;;;6.97;2.53;;;12.70;53.00;;;;;;20829682;28;20555;-77
2023/05/17 22:26:51;;;;;;;9.33;2.70;;;12.50;53.60;;;;;;20829237;28;20254;-77
2023/05/17 22:36:53;;;;;;;10.10;2.63;;;12.30;54.40;;;;;;20829800;28;20233;-78
2023/05/17 22:46:56;;;;;;;9.00;3.07;;;11.80;55.80;;;;;;20829595;28;20234;-75
2023/05/17 22:56:58;;;;;;;7.93;2.63;;;11.80;56.30;;;;;;20829404;28;20296;-74
2023/05/17 23:07:03;;;;;;;7.63;2.50;;;11.70;56.90;;;;;;20833909;28;20239;-76
2023/05/17 23:17:05;;;;;;;6.90;2.83;;;11.60;57.00;;;;;;20844008;28;20217;-77
2023/05/17 23:27:08;;;;;;;8.23;2.80;;;11.40;57.50;;;;;;20843370;28;20246;-78
2023/05/17 23:37:10;;;;;;;8.27;2.93;;;11.20;57.80;;;;;;20842757;28;20202;-73
2023/05/17 23:47:12;;;;;;;7.77;3.03;;;11.20;58.30;;;;;;20848005;28;20764;-78
2023/05/17 23:57:14;;;;;;;7.50;2.70;;;11.00;58.80;;;;;;20881589;28;20213;-77
